Time;durP1;ratioP1;P1;durP2;ratioP2;P2;SDS_P1;SDS_P2;PMS_P1;PMS_P2;Temp;Humidity;BMP_temperature;BMP_pressure;BME280_temperature;BME280_humidity;BME280_pressure;Samples;Min_cycle;Max_cycle;Signal;HPM_P1;HPM_P2
2023/11/03 00:01:18;;;;;;;;;;;;;;;;;;5071575;28;19924;-74
2023/11/03 00:03:48;;;;;;;;;;;;;;;;;;5044289;28;19971;-68
2023/11/03 00:06:14;;;;;;;;;;;;;;;;;;5044095;28;20435;-72
2023/11/03 00:08:40;;;;;;;;;;;;;;;;;;5049924;28;20001;-74
2023/11/03 00:11:06;;;;;;;;;;;;;;;;;;5059613;28;21938;-73
2023/11/03 00:13:31;;;;;;;;;;;;;;;;;;5058363;28;19916;-69
2023/11/03 00:15:57;;;;;;;;;;;;;;;;;;5069799;28;19932;-70
2023/11/03 00:18:22;;;;;;;;;;;;;;;;;;5045893;28;19974;-71
2023/11/03 00:20:50;;;;;;;;;;;;;;;;;;5039222;28;19924;-75
2023/11/03 00:23:15;;;;;;;;;;;;;;;;;;5047570;28;20443;-75
2023/11/03 00:25:40;;;;;;;;;;;;;;;;;;5038396;28;19938;-73
2023/11/03 00:28:05;;;;;;;;;;;;;;;;;;5058139;28;19966;-74
2023/11/03 00:30:31;;;;;;;;;;;;;;;;;;5086085;27;19925;-70
2023/11/03 00:32:58;;;;;;;;;;;;;;;;;;5054116;28;19920;-73
2023/11/03 00:35:23;;;;;;;;;;;;;;;;;;5050587;28;19917;-74
2023/11/03 00:37:49;;;;;;;;;;;;;;;;;;5042256;28;19956;-69
2023/11/03 00:40:16;;;;;;;;;;;;;;;;;;5044480;28;20005;-73
2023/11/03 00:42:42;;;;;;;;;;;;;;;;;;5051391;28;20819;-70
2023/11/03 00:45:10;;;;;;;;;;;;;;;;;;5049053;28;19920;-76
2023/11/03 00:47:38;;;;;;;;;;;;;;;;;;5050911;28;19921;-69
2023/11/03 00:50:06;;;;;;;;;;;;;;;;;;5085667;27;20367;-70
2023/11/03 00:52:34;;;;;;;;;;;;;;;;;;5067472;28;20373;-73
2023/11/03 00:55:06;;;;;;;;;;;;;;;;;;5054104;28;19939;-74
2023/11/03 00:57:33;;;;;;;;;;;;;;;;;;5052091;28;19960;-71
2023/11/03 00:59:59;;;;;;;;;;;;;;;;;;5052002;28;20388;-76
2023/11/03 01:02:26;;;;;;;;;;;;;;;;;;5056916;28;19920;-75
2023/11/03 01:04:55;;;;;;;;;;;;;;;;;;5036625;28;19916;-69
2023/11/03 01:07:23;;;;;;;;;;;;;;;;;;5051055;28;19920;-72
2023/11/03 01:09:52;;;;;;;;;;;;;;;;;;5051924;28;20379;-74
2023/11/03 01:12:21;;;;;;;;;;;;;;;;;;5053483;28;19916;-70
2023/11/03 01:14:51;;;;;;;;;;;;;;;;;;5067802;28;19920;-74
2023/11/03 01:17:16;;;;;;;;;;;;;;;;;;5036888;28;19924;-74
2023/11/03 01:19:45;;;;;;;;;;;;;;;;;;5049171;28;19920;-73
2023/11/03 01:22:19;;;;;;;;;;;;;;;;;;5042783;28;19920;-76
2023/11/03 01:24:44;;;;;;;;;;;;;;;;;;5068338;28;20336;-77
2023/11/03 01:27:09;;;;;;;;;;;;;;;;;;5040238;28;19920;-75
2023/11/03 01:29:35;;;;;;;;;;;;;;;;;;5055489;28;19986;-71
2023/11/03 01:32:02;;;;;;;;;;;;;;;;;;5066592;28;20530;-69
2023/11/03 01:34:31;;;;;;;;;;;;;;;;;;5054125;28;19923;-75
2023/11/03 01:36:57;;;;;;;;;;;;;;;;;;5047480;28;20193;-73
2023/11/03 01:39:22;;;;;;;;;;;;;;;;;;5052536;28;19973;-69
2023/11/03 01:41:47;;;;;;;;;;;;;;;;;;5053607;28;19923;-70
2023/11/03 01:44:12;;;;;;;;;;;;;;;;;;5043941;28;19915;-70
2023/11/03 01:46:38;;;;;;;;;;;;;;;;;;5048508;28;19955;-69
2023/11/03 01:49:03;;;;;;;;;;;;;;;;;;5051228;28;21529;-74
2023/11/03 01:51:28;;;;;;;;;;;;;;;;;;5033918;28;20413;-70
2023/11/03 01:53:56;;;;;;;;;;;;;;;;;;5028318;28;20337;-74
2023/11/03 01:56:21;;;;;;;;;;;;;;;;;;5051573;28;19916;-71
2023/11/03 01:58:47;;;;;;;;;;;;;;;;;;5038255;28;20296;-75
2023/11/03 02:01:15;;;;;;;;;;;;;;;;;;5052211;28;20001;-71
2023/11/03 02:03:43;;;;;;;;;;;;;;;;;;5054078;28;19916;-70
2023/11/03 02:06:11;;;;;;;;;;;;;;;;;;5069549;28;19980;-72
2023/11/03 02:08:41;;;;;;;;;;;;;;;;;;5067324;28;19974;-75
2023/11/03 02:11:10;;;;;;;;;;;;;;;;;;5036674;28;20568;-72
2023/11/03 02:13:35;;;;;;;;;;;;;;;;;;5067394;28;20772;-67
2023/11/03 02:16:00;;;;;;;;;;;;;;;;;;5053608;28;20026;-74
2023/11/03 02:18:26;;;;;;;;;;;;;;;;;;5052518;28;19943;-73
2023/11/03 02:20:53;;;;;;;;;;;;;;;;;;5081328;27;19924;-68
2023/11/03 02:23:21;;;;;;;;;;;;;;;;;;5052794;28;19915;-68
2023/11/03 02:25:51;;;;;;;;;;;;;;;;;;5052667;28;19920;-69
2023/11/03 02:28:21;;;;;;;;;;;;;;;;;;5050405;28;19987;-68
2023/11/03 02:30:49;;;;;;;;;;;;;;;;;;5064918;28;19916;-69
2023/11/03 02:33:16;;;;;;;;;;;;;;;;;;5068850;28;20023;-70
2023/11/03 02:35:41;;;;;;;;;;;;;;;;;;5051791;28;20290;-69
2023/11/03 02:38:08;;;;;;;;;;;;;;;;;;5067162;28;19970;-67
2023/11/03 02:40:34;;;;;;;;;;;;;;;;;;5065526;28;19924;-67
2023/11/03 02:42:59;;;;;;;;;;;;;;;;;;5067378;28;19928;-67
2023/11/03 02:45:24;;;;;;;;;;;;;;;;;;5065807;28;19913;-67
2023/11/03 02:47:50;;;;;;;;;;;;;;;;;;5050955;28;20766;-68
2023/11/03 02:50:15;;;;;;;;;;;;;;;;;;5051277;28;20009;-66
2023/11/03 02:52:46;;;;;;;;;;;;;;;;;;5049300;28;20011;-67
2023/11/03 02:55:11;;;;;;;;;;;;;;;;;;5036103;28;20383;-67
2023/11/03 02:57:36;;;;;;;;;;;;;;;;;;5047554;28;19930;-67
2023/11/03 03:00:02;;;;;;;;;;;;;;;;;;5063653;28;19924;-67
2023/11/03 03:02:27;;;;;;;;;;;;;;;;;;5052631;28;19932;-66
2023/11/03 03:04:52;;;;;;;;;;;;;;;;;;5067003;28;20598;-68
2023/11/03 03:07:20;;;;;;;;;;;;;;;;;;5051833;28;19962;-67
2023/11/03 03:09:45;;;;;;;;;;;;;;;;;;5034681;28;20005;-66
2023/11/03 03:12:11;;;;;;;;;;;;;;;;;;5047772;28;20015;-66
2023/11/03 03:14:37;;;;;;;;;;;;;;;;;;5032146;28;19993;-69
2023/11/03 03:17:05;;;;;;;;;;;;;;;;;;5053101;28;19920;-67
2023/11/03 03:19:30;;;;;;;;;;;;;;;;;;5051110;28;20042;-67
2023/11/03 03:21:58;;;;;;;;;;;;;;;;;;5035265;28;19947;-68
2023/11/03 03:24:23;;;;;;;;;;;;;;;;;;5047497;28;20462;-68
2023/11/03 03:26:52;;;;;;;;;;;;;;;;;;5051766;28;19916;-68
2023/11/03 03:29:20;;;;;;;;;;;;;;;;;;5030926;28;20036;-68
2023/11/03 03:31:45;;;;;;;;;;;;;;;;;;5066960;28;20018;-67
2023/11/03 03:34:10;;;;;;;;;;;;;;;;;;5052103;28;19920;-67
2023/11/03 03:36:38;;;;;;;;;;;;;;;;;;5065132;28;20007;-68
2023/11/03 03:39:04;;;;;;;;;;;;;;;;;;5065472;28;19920;-70
2023/11/03 03:41:32;;;;;;;;;;;;;;;;;;5050619;28;19920;-67
2023/11/03 03:43:57;;;;;;;;;;;;;;;;;;5039101;28;19993;-68
2023/11/03 03:46:27;;;;;;;;;;;;;;;;;;5038150;28;21467;-67
2023/11/03 03:48:55;;;;;;;;;;;;;;;;;;5036524;28;20446;-68
2023/11/03 03:51:20;;;;;;;;;;;;;;;;;;5051454;28;19916;-69
2023/11/03 03:53:45;;;;;;;;;;;;;;;;;;5037807;28;20560;-72
2023/11/03 03:56:11;;;;;;;;;;;;;;;;;;5066808;28;20000;-72
2023/11/03 03:58:36;;;;;;;;;;;;;;;;;;5059070;28;20009;-69
2023/11/03 04:01:01;;;;;;;;;;;;;;;;;;5047320;28;20018;-68
2023/11/03 04:03:27;;;;;;;;;;;;;;;;;;5031277;28;19920;-68
2023/11/03 04:05:52;;;;;;;;;;;;;;;;;;5068047;28;19947;-71
2023/11/03 04:08:17;;;;;;;;;;;;;;;;;;5064311;28;19916;-68
2023/11/03 04:10:45;;;;;;;;;;;;;;;;;;5036033;28;19942;-65
2023/11/03 04:13:10;;;;;;;;;;;;;;;;;;5056649;28;19916;-66
2023/11/03 04:15:36;;;;;;;;;;;;;;;;;;5054843;28;19928;-68
2023/11/03 04:18:01;;;;;;;;;;;;;;;;;;5038423;28;19916;-69
2023/11/03 04:20:26;;;;;;;;;;;;;;;;;;5053060;28;19945;-67
2023/11/03 04:22:54;;;;;;;;;;;;;;;;;;5036223;28;19920;-66
2023/11/03 04:25:24;;;;;;;;;;;;;;;;;;5055678;28;20015;-65
2023/11/03 04:27:49;;;;;;;;;;;;;;;;;;5056458;28;19959;-65
2023/11/03 04:30:15;;;;;;;;;;;;;;;;;;5067783;28;20460;-66
2023/11/03 04:32:47;;;;;;;;;;;;;;;;;;5051192;28;20965;-66
2023/11/03 04:35:15;;;;;;;;;;;;;;;;;;5055022;28;20019;-66
2023/11/03 04:37:43;;;;;;;;;;;;;;;;;;5055808;28;20358;-67
2023/11/03 04:40:08;;;;;;;;;;;;;;;;;;5041029;28;19935;-65
2023/11/03 04:42:34;;;;;;;;;;;;;;;;;;5059429;28;19916;-66
2023/11/03 04:45:03;;;;;;;;;;;;;;;;;;5066094;28;19954;-66
2023/11/03 04:47:33;;;;;;;;;;;;;;;;;;5054347;28;19920;-68
2023/11/03 04:50:01;;;;;;;;;;;;;;;;;;5052511;28;19927;-68
2023/11/03 04:52:26;;;;;;;;;;;;;;;;;;5059170;28;19916;-66
2023/11/03 04:54:58;;;;;;;;;;;;;;;;;;5036951;28;19916;-74
2023/11/03 04:57:23;;;;;;;;;;;;;;;;;;5042167;28;20355;-66
2023/11/03 04:59:51;;;;;;;;;;;;;;;;;;5038457;28;20201;-66
2023/11/03 05:02:19;;;;;;;;;;;;;;;;;;5074831;27;19923;-66
2023/11/03 05:04:44;;;;;;;;;;;;;;;;;;5049455;28;19953;-67
2023/11/03 05:07:15;;;;;;;;;;;;;;;;;;5038492;28;20291;-66
2023/11/03 05:09:43;;;;;;;;;;;;;;;;;;5037353;28;19921;-66
2023/11/03 05:12:11;;;;;;;;;;;;;;;;;;5051801;28;19916;-68
2023/11/03 05:14:39;;;;;;;;;;;;;;;;;;5039504;28;19928;-69
2023/11/03 05:17:05;;;;;;;;;;;;;;;;;;5040421;28;19928;-67
2023/11/03 05:19:32;;;;;;;;;;;;;;;;;;5037836;28;19947;-65
2023/11/03 05:22:00;;;;;;;;;;;;;;;;;;5040367;28;20014;-71
2023/11/03 05:24:25;;;;;;;;;;;;;;;;;;5048205;28;19977;-67
2023/11/03 05:26:51;;;;;;;;;;;;;;;;;;5051028;28;19924;-67
2023/11/03 05:29:22;;;;;;;;;;;;;;;;;;5039476;28;19916;-67
2023/11/03 05:31:47;;;;;;;;;;;;;;;;;;5068274;28;19943;-66
2023/11/03 05:34:15;;;;;;;;;;;;;;;;;;5036022;28;20265;-69
2023/11/03 05:36:41;;;;;;;;;;;;;;;;;;5087369;27;19923;-67
2023/11/03 05:39:08;;;;;;;;;;;;;;;;;;5036238;28;19924;-69
2023/11/03 05:41:39;;;;;;;;;;;;;;;;;;5308341;23;19943;-68
2023/11/03 05:44:04;;;;;;;;;;;;;;;;;;5055669;28;19927;-66
2023/11/03 05:46:29;;;;;;;;;;;;;;;;;;5094580;27;19920;-72
2023/11/03 05:48:54;;;;;;;;;;;;;;;;;;5088654;27;20061;-65
2023/11/03 05:51:26;;;;;;;;;;;;;;;;;;5048701;28;20015;-67
2023/11/03 05:53:51;;;;;;;;;;;;;;;;;;5036800;28;19938;-67
2023/11/03 05:56:19;;;;;;;;;;;;;;;;;;5077059;28;20478;-68
2023/11/03 05:58:47;;;;;;;;;;;;;;;;;;5085680;27;19974;-67
2023/11/03 06:01:17;;;;;;;;;;;;;;;;;;5087829;27;19930;-66
2023/11/03 06:03:43;;;;;;;;;;;;;;;;;;5087477;27;19920;-66
2023/11/03 06:06:09;;;;;;;;;;;;;;;;;;5059681;28;19919;-65
2023/11/03 06:08:34;;;;;;;;;;;;;;;;;;5053905;28;20404;-70
2023/11/03 06:11:02;;;;;;;;;;;;;;;;;;5058135;28;19916;-66
2023/11/03 06:13:27;;;;;;;;;;;;;;;;;;5076038;28;19927;-67
2023/11/03 06:15:53;;;;;;;;;;;;;;;;;;5070499;28;19916;-67
2023/11/03 06:18:18;;;;;;;;;;;;;;;;;;5087295;27;19916;-65
2023/11/03 06:20:43;;;;;;;;;;;;;;;;;;5046860;28;19974;-66
2023/11/03 06:23:09;;;;;;;;;;;;;;;;;;5052058;28;20484;-65
2023/11/03 06:25:37;;;;;;;;;;;;;;;;;;5069752;28;19973;-65
2023/11/03 06:28:02;;;;;;;;;;;;;;;;;;5088148;27;20217;-65
2023/11/03 06:30:28;;;;;;;;;;;;;;;;;;5071153;28;20437;-66
2023/11/03 06:32:53;;;;;;;;;;;;;;;;;;5091867;27;19923;-67
2023/11/03 06:35:21;;;;;;;;;;;;;;;;;;5085474;27;20300;-66
2023/11/03 06:37:48;;;;;;;;;;;;;;;;;;5039648;28;19923;-66
2023/11/03 06:40:15;;;;;;;;;;;;;;;;;;5070832;28;20332;-65
2023/11/03 06:42:43;;;;;;;;;;;;;;;;;;5093380;28;19919;-65
2023/11/03 06:45:08;;;;;;;;;;;;;;;;;;5074916;28;20414;-64
2023/11/03 06:47:36;;;;;;;;;;;;;;;;;;5075276;28;19964;-68
2023/11/03 06:50:04;;;;;;;;;;;;;;;;;;5087820;28;20414;-70
2023/11/03 06:52:32;;;;;;;;;;;;;;;;;;5073527;28;19959;-65
2023/11/03 06:54:57;;;;;;;;;;;;;;;;;;5054857;28;20014;-66
2023/11/03 06:57:25;;;;;;;;;;;;;;;;;;5075229;28;19916;-66
2023/11/03 06:59:51;;;;;;;;;;;;;;;;;;5073876;28;20363;-67
2023/11/03 07:02:17;;;;;;;;;;;;;;;;;;5092387;28;19920;-67
2023/11/03 07:04:44;;;;;;;;;;;;;;;;;;5075407;28;20004;-66
2023/11/03 07:07:09;;;;;;;;;;;;;;;;;;5086738;28;20039;-68
2023/11/03 07:09:34;;;;;;;;;;;;;;;;;;5072345;28;20058;-66
2023/11/03 07:12:06;;;;;;;;;;;;;;;;;;5088793;27;20003;-67
2023/11/03 07:14:31;;;;;;;;;;;;;;;;;;5075343;28;19915;-66
2023/11/03 07:16:56;;;;;;;;;;;;;;;;;;5075240;28;20582;-68
2023/11/03 07:19:22;;;;;;;;;;;;;;;;;;5069986;28;19927;-70
2023/11/03 07:21:48;;;;;;;;;;;;;;;;;;5072962;28;20055;-67
2023/11/03 07:24:14;;;;;;;;;;;;;;;;;;5069875;28;20433;-66
2023/11/03 07:26:39;;;;;;;;;;;;;;;;;;5075922;28;19924;-67
2023/11/03 07:29:04;;;;;;;;;;;;;;;;;;5072252;28;19916;-69
2023/11/03 07:31:30;;;;;;;;;;;;;;;;;;5073109;28;19920;-67
2023/11/03 07:33:58;;;;;;;;;;;;;;;;;;5077505;28;19972;-67
2023/11/03 07:36:23;;;;;;;;;;;;;;;;;;5087586;28;20649;-69
2023/11/03 07:38:48;;;;;;;;;;;;;;;;;;5073164;28;19919;-66
2023/11/03 07:41:14;;;;;;;;;;;;;;;;;;5057111;28;20023;-65
2023/11/03 07:43:39;;;;;;;;;;;;;;;;;;5089612;28;19920;-66
2023/11/03 07:46:07;;;;;;;;;;;;;;;;;;5078429;28;19919;-66
2023/11/03 07:48:35;;;;;;;;;;;;;;;;;;5093922;28;19920;-66
2023/11/03 07:51:02;;;;;;;;;;;;;;;;;;5077895;28;20306;-67
2023/11/03 07:53:31;;;;;;;;;;;;;;;;;;5076058;28;19937;-64
2023/11/03 07:55:56;;;;;;;;;;;;;;;;;;5062615;28;20340;-68
2023/11/03 07:58:27;;;;;;;;;;;;;;;;;;5060510;28;19969;-64
2023/11/03 08:00:53;;;;;;;;;;;;;;;;;;5093675;28;20352;-68
2023/11/03 08:03:18;;;;;;;;;;;;;;;;;;5096920;28;19920;-68
2023/11/03 08:05:46;;;;;;;;;;;;;;;;;;5092659;27;19915;-69
2023/11/03 08:08:15;;;;;;;;;;;;;;;;;;5080679;28;19922;-66
2023/11/03 08:10:40;;;;;;;;;;;;;;;;;;5073890;28;19920;-67
2023/11/03 08:13:05;;;;;;;;;;;;;;;;;;5093197;28;20661;-66
2023/11/03 08:15:30;;;;;;;;;;;;;;;;;;5077668;28;19919;-67
2023/11/03 08:17:56;;;;;;;;;;;;;;;;;;5078283;28;19919;-67
2023/11/03 08:20:21;;;;;;;;;;;;;;;;;;5076487;28;19927;-69
2023/11/03 08:22:51;;;;;;;;;;;;;;;;;;5075533;28;20450;-67
2023/11/03 08:25:17;;;;;;;;;;;;;;;;;;5093804;28;20007;-68
2023/11/03 08:27:43;;;;;;;;;;;;;;;;;;5062449;28;19930;-67
2023/11/03 08:30:12;;;;;;;;;;;;;;;;;;5079472;28;20764;-68
2023/11/03 08:32:40;;;;;;;;;;;;;;;;;;5078832;28;19923;-64
2023/11/03 08:35:05;;;;;;;;;;;;;;;;;;5093865;28;20526;-66
2023/11/03 08:37:33;;;;;;;;;;;;;;;;;;5060733;28;20589;-67
2023/11/03 08:39:59;;;;;;;;;;;;;;;;;;5076177;28;19956;-67
2023/11/03 08:42:26;;;;;;;;;;;;;;;;;;5091842;27;19928;-65
2023/11/03 08:44:52;;;;;;;;;;;;;;;;;;5096048;28;20236;-66
2023/11/03 08:47:20;;;;;;;;;;;;;;;;;;5079295;28;19926;-67
2023/11/03 08:49:47;;;;;;;;;;;;;;;;;;5061571;28;19916;-66
2023/11/03 08:52:13;;;;;;;;;;;;;;;;;;5075943;28;19920;-66
2023/11/03 08:54:41;;;;;;;;;;;;;;;;;;5076192;28;19923;-65
2023/11/03 08:57:06;;;;;;;;;;;;;;;;;;5078744;28;19920;-67
2023/11/03 08:59:31;;;;;;;;;;;;;;;;;;5077787;28;19931;-63
2023/11/03 09:01:59;;;;;;;;;;;;;;;;;;5062187;28;19919;-63
2023/11/03 09:04:24;;;;;;;;;;;;;;;;;;5059764;28;19916;-64
2023/11/03 09:06:49;;;;;;;;;;;;;;;;;;5060179;28;20048;-65
2023/11/03 09:09:15;;;;;;;;;;;;;;;;;;5057431;28;19998;-69
2023/11/03 09:11:43;;;;;;;;;;;;;;;;;;5057666;28;19925;-65
2023/11/03 09:14:09;;;;;;;;;;;;;;;;;;5059093;28;19919;-67
2023/11/03 09:16:35;;;;;;;;;;;;;;;;;;5094744;28;20358;-67
2023/11/03 09:19:03;;;;;;;;;;;;;;;;;;5059949;28;19955;-68
2023/11/03 09:21:33;;;;;;;;;;;;;;;;;;5094447;28;20350;-70
2023/11/03 09:24:01;;;;;;;;;;;;;;;;;;5078071;28;19971;-67
2023/11/03 09:26:29;;;;;;;;;;;;;;;;;;5074602;28;19926;-71
2023/11/03 09:28:57;;;;;;;;;;;;;;;;;;5065336;28;19916;-68
2023/11/03 09:31:23;;;;;;;;;;;;;;;;;;5078401;28;20274;-68
2023/11/03 09:33:50;;;;;;;;;;;;;;;;;;5077788;28;20057;-68
2023/11/03 09:36:18;;;;;;;;;;;;;;;;;;5092993;28;19916;-70
2023/11/03 09:38:45;;;;;;;;;;;;;;;;;;5060181;28;19916;-74
2023/11/03 09:41:15;;;;;;;;;;;;;;;;;;5076736;28;19947;-66
2023/11/03 09:43:47;;;;;;;;;;;;;;;;;;5092386;28;19996;-70
2023/11/03 09:46:12;;;;;;;;;;;;;;;;;;5076093;28;19926;-73
2023/11/03 09:48:41;;;;;;;;;;;;;;;;;;5059673;28;19996;-73
2023/11/03 09:51:06;;;;;;;;;;;;;;;;;;5060565;28;21794;-68
2023/11/03 09:53:32;;;;;;;;;;;;;;;;;;5060779;27;20030;-70
2023/11/03 09:56:00;;;;;;;;;;;;;;;;;;5058412;28;19920;-69
2023/11/03 09:58:25;;;;;;;;;;;;;;;;;;5058630;28;20004;-71
2023/11/03 10:00:50;;;;;;;;;;;;;;;;;;5077807;28;19931;-73
2023/11/03 10:03:19;;;;;;;;;;;;;;;;;;5092365;28;19974;-73
2023/11/03 10:05:44;;;;;;;;;;;;;;;;;;5058738;28;20330;-70
2023/11/03 10:08:17;;;;;;;;;;;;;;;;;;5078684;28;19922;-76
2023/11/03 10:10:42;;;;;;;;;;;;;;;;;;5057173;27;19927;-73
2023/11/03 10:13:11;;;;;;;;;;;;;;;;;;5063367;28;19922;-74
2023/11/03 10:15:36;;;;;;;;;;;;;;;;;;5074257;28;19920;-72
2023/11/03 10:18:02;;;;;;;;;;;;;;;;;;5092783;27;19963;-75
2023/11/03 10:20:28;;;;;;;;;;;;;;;;;;5055802;28;19977;-72
2023/11/03 10:22:55;;;;;;;;;;;;;;;;;;5078807;28;19924;-76
2023/11/03 10:25:26;;;;;;;;;;;;;;;;;;5076614;28;19927;-71
2023/11/03 10:27:54;;;;;;;;;;;;;;;;;;5093061;28;20077;-74
2023/11/03 10:30:19;;;;;;;;;;;;;;;;;;5078018;28;19920;-75
2023/11/03 10:32:44;;;;;;;;;;;;;;;;;;5093360;27;19916;-74
2023/11/03 10:35:09;;;;;;;;;;;;;;;;;;5077573;28;19924;-74
2023/11/03 10:37:35;;;;;;;;;;;;;;;;;;5061050;28;19955;-77
2023/11/03 10:40:02;;;;;;;;;;;;;;;;;;5094736;28;19972;-75
2023/11/03 10:42:30;;;;;;;;;;;;;;;;;;5073401;28;19928;-73
2023/11/03 10:44:55;;;;;;;;;;;;;;;;;;5061525;28;19923;-73
2023/11/03 10:47:22;;;;;;;;;;;;;;;;;;5079302;28;19922;-73
2023/11/03 10:49:50;;;;;;;;;;;;;;;;;;5079487;28;19920;-75
2023/11/03 10:52:18;;;;;;;;;;;;;;;;;;5080273;28;20547;-75
2023/11/03 10:54:46;;;;;;;;;;;;;;;;;;5078966;28;19972;-76
2023/11/03 10:57:13;;;;;;;;;;;;;;;;;;5079213;28;19920;-74
2023/11/03 10:59:41;;;;;;;;;;;;;;;;;;5094784;28;20394;-75
2023/11/03 11:02:06;;;;;;;;;;;;;;;;;;5077680;28;20007;-75
2023/11/03 11:04:34;;;;;;;;;;;;;;;;;;5078616;28;20370;-76
2023/11/03 11:07:00;;;;;;;;;;;;;;;;;;5095273;28;19989;-73
2023/11/03 11:09:28;;;;;;;;;;;;;;;;;;5078558;28;19924;-71
2023/11/03 11:11:53;;;;;;;;;;;;;;;;;;5078469;28;19919;-75
2023/11/03 11:14:22;;;;;;;;;;;;;;;;;;5079498;28;19954;-73
2023/11/03 11:16:50;;;;;;;;;;;;;;;;;;5077018;28;19930;-74
2023/11/03 11:19:20;;;;;;;;;;;;;;;;;;5079011;28;19919;-71
2023/11/03 11:21:45;;;;;;;;;;;;;;;;;;5077799;28;19924;-69
2023/11/03 11:24:11;;;;;;;;;;;;;;;;;;5077573;28;19920;-70
2023/11/03 11:26:36;;;;;;;;;;;;;;;;;;5090906;28;20736;-70
2023/11/03 11:29:02;;;;;;;;;;;;;;;;;;5075717;28;19924;-72
2023/11/03 11:31:28;;;;;;;;;;;;;;;;;;5077862;28;19920;-72
2023/11/03 11:33:53;;;;;;;;;;;;;;;;;;5076755;28;20102;-73
2023/11/03 11:36:18;;;;;;;;;;;;;;;;;;5094626;28;19920;-73
2023/11/03 11:38:44;;;;;;;;;;;;;;;;;;5058119;28;20000;-74
2023/11/03 11:41:09;;;;;;;;;;;;;;;;;;5079230;28;20378;-70
2023/11/03 11:43:37;;;;;;;;;;;;;;;;;;5072012;28;19919;-75
2023/11/03 11:46:02;;;;;;;;;;;;;;;;;;5077711;28;20107;-69
2023/11/03 11:48:29;;;;;;;;;;;;;;;;;;5075523;28;20336;-69
2023/11/03 11:50:55;;;;;;;;;;;;;;;;;;5092665;28;19995;-75
2023/11/03 11:53:20;;;;;;;;;;;;;;;;;;5060147;28;22118;-72
2023/11/03 11:55:48;;;;;;;;;;;;;;;;;;5075732;28;19915;-76
2023/11/03 11:58:18;;;;;;;;;;;;;;;;;;5089565;28;19959;-73
2023/11/03 12:00:43;;;;;;;;;;;;;;;;;;5059294;28;19975;-74
2023/11/03 12:03:09;;;;;;;;;;;;;;;;;;5060034;28;20148;-75
2023/11/03 12:05:34;;;;;;;;;;;;;;;;;;5072836;28;21074;-72
2023/11/03 12:08:01;;;;;;;;;;;;;;;;;;5059668;28;19920;-77
2023/11/03 12:10:33;;;;;;;;;;;;;;;;;;5089024;28;20479;-73
2023/11/03 12:13:00;;;;;;;;;;;;;;;;;;5077603;28;19941;-74
2023/11/03 12:15:26;;;;;;;;;;;;;;;;;;5071241;28;20510;-77
2023/11/03 12:17:54;;;;;;;;;;;;;;;;;;5060734;28;19920;-72
2023/11/03 12:20:19;;;;;;;;;;;;;;;;;;5072241;28;19919;-76
2023/11/03 12:22:45;;;;;;;;;;;;;;;;;;5076423;28;19918;-73
2023/11/03 12:25:10;;;;;;;;;;;;;;;;;;5075098;28;20726;-74
2023/11/03 12:27:37;;;;;;;;;;;;;;;;;;5074861;28;19916;-77
2023/11/03 12:30:03;;;;;;;;;;;;;;;;;;5090789;28;19916;-74
2023/11/03 12:32:30;;;;;;;;;;;;;;;;;;5090396;28;19920;-76
2023/11/03 12:34:56;;;;;;;;;;;;;;;;;;5094886;28;19920;-71
2023/11/03 12:37:22;;;;;;;;;;;;;;;;;;5092008;27;19911;-75
2023/11/03 12:39:47;;;;;;;;;;;;;;;;;;5077482;28;20006;-77
2023/11/03 12:42:13;;;;;;;;;;;;;;;;;;5061858;28;20619;-73
2023/11/03 12:44:38;;;;;;;;;;;;;;;;;;5093583;27;20557;-77
2023/11/03 12:47:03;;;;;;;;;;;;;;;;;;5061708;28;19958;-72
2023/11/03 12:49:31;;;;;;;;;;;;;;;;;;5077284;28;19966;-75
2023/11/03 12:51:56;;;;;;;;;;;;;;;;;;5076794;28;19924;-74
2023/11/03 12:54:22;;;;;;;;;;;;;;;;;;5079288;28;20064;-74
2023/11/03 12:56:50;;;;;;;;;;;;;;;;;;5061154;28;20589;-75
2023/11/03 12:59:18;;;;;;;;;;;;;;;;;;5061210;28;19938;-75
2023/11/03 13:01:45;;;;;;;;;;;;;;;;;;5076259;27;19971;-75
2023/11/03 13:04:13;;;;;;;;;;;;;;;;;;5078433;28;20000;-71
2023/11/03 13:06:39;;;;;;;;;;;;;;;;;;5077877;28;20018;-73
2023/11/03 13:09:13;;;;;;;;;;;;;;;;;;5080273;28;20057;-75
2023/11/03 13:11:39;;;;;;;;;;;;;;;;;;5060843;28;19955;-76
2023/11/03 13:14:04;;;;;;;;;;;;;;;;;;5076942;28;20018;-76
2023/11/03 13:16:30;;;;;;;;;;;;;;;;;;5094889;28;19916;-71
2023/11/03 13:18:55;;;;;;;;;;;;;;;;;;5094143;28;19915;-70
2023/11/03 13:21:21;;;;;;;;;;;;;;;;;;5078161;28;19967;-68
2023/11/03 13:23:46;;;;;;;;;;;;;;;;;;5061191;28;19916;-73
2023/11/03 13:26:12;;;;;;;;;;;;;;;;;;5079090;28;19959;-74
2023/11/03 13:28:37;;;;;;;;;;;;;;;;;;5092121;27;20540;-74
2023/11/03 13:31:02;;;;;;;;;;;;;;;;;;5060224;28;19981;-74
2023/11/03 13:33:28;;;;;;;;;;;;;;;;;;5075757;28;20290;-75
2023/11/03 13:35:53;;;;;;;;;;;;;;;;;;5078013;28;20010;-75
2023/11/03 13:38:18;;;;;;;;;;;;;;;;;;5091957;28;20278;-76
2023/11/03 13:40:47;;;;;;;;;;;;;;;;;;5076303;28;19924;-73
2023/11/03 13:43:15;;;;;;;;;;;;;;;;;;5079751;28;19973;-74
2023/11/03 13:45:44;;;;;;;;;;;;;;;;;;5063076;28;20377;-72
2023/11/03 13:48:09;;;;;;;;;;;;;;;;;;5078951;28;20232;-75
2023/11/03 13:50:35;;;;;;;;;;;;;;;;;;5076011;28;19922;-74
2023/11/03 13:53:04;;;;;;;;;;;;;;;;;;5077910;28;20155;-75
2023/11/03 13:55:31;;;;;;;;;;;;;;;;;;5077860;28;19931;-73
2023/11/03 13:57:58;;;;;;;;;;;;;;;;;;5062394;28;20290;-73
2023/11/03 14:00:23;;;;;;;;;;;;;;;;;;5092474;28;19924;-72
2023/11/03 14:02:48;;;;;;;;;;;;;;;;;;5094015;28;19920;-74
2023/11/03 14:05:14;;;;;;;;;;;;;;;;;;5057710;28;19920;-75
2023/11/03 14:07:41;;;;;;;;;;;;;;;;;;5096143;28;19955;-75
2023/11/03 14:10:09;;;;;;;;;;;;;;;;;;5077408;28;19916;-74
2023/11/03 14:12:34;;;;;;;;;;;;;;;;;;5094654;28;20007;-71
2023/11/03 14:15:00;;;;;;;;;;;;;;;;;;5074848;28;19916;-75
2023/11/03 14:17:25;;;;;;;;;;;;;;;;;;5076238;28;19915;-73
2023/11/03 14:19:51;;;;;;;;;;;;;;;;;;5075284;28;19923;-76
2023/11/03 14:22:17;;;;;;;;;;;;;;;;;;5076413;28;19915;-70
2023/11/03 14:24:43;;;;;;;;;;;;;;;;;;5076163;28;19973;-74
2023/11/03 14:27:08;;;;;;;;;;;;;;;;;;5089906;28;19928;-73
2023/11/03 14:29:34;;;;;;;;;;;;;;;;;;5076994;27;19920;-71
2023/11/03 14:31:59;;;;;;;;;;;;;;;;;;5077288;28;19966;-74
2023/11/03 14:34:24;;;;;;;;;;;;;;;;;;5058101;28;20036;-70
2023/11/03 14:36:52;;;;;;;;;;;;;;;;;;5076811;28;20409;-70
2023/11/03 14:39:22;;;;;;;;;;;;;;;;;;5058522;28;20014;-72
2023/11/03 14:41:50;;;;;;;;;;;;;;;;;;5067399;28;20596;-72
2023/11/03 14:44:15;;;;;;;;;;;;;;;;;;5051744;28;19924;-71
2023/11/03 14:46:40;;;;;;;;;;;;;;;;;;5061323;28;19920;-73
2023/11/03 14:49:12;;;;;;;;;;;;;;;;;;5062285;28;20009;-70
2023/11/03 14:51:40;;;;;;;;;;;;;;;;;;5078187;28;19974;-75
2023/11/03 14:54:10;;;;;;;;;;;;;;;;;;5059856;28;20034;-77
2023/11/03 14:56:36;;;;;;;;;;;;;;;;;;5076309;28;19923;-74
2023/11/03 14:59:01;;;;;;;;;;;;;;;;;;5077312;28;19915;-74
2023/11/03 15:01:31;;;;;;;;;;;;;;;;;;5062834;28;20519;-77
2023/11/03 15:03:57;;;;;;;;;;;;;;;;;;5060699;28;19915;-77
2023/11/03 15:06:24;;;;;;;;;;;;;;;;;;5064230;28;20385;-71
2023/11/03 15:08:55;;;;;;;;;;;;;;;;;;5062409;28;19955;-76
2023/11/03 15:11:23;;;;;;;;;;;;;;;;;;5063060;28;20533;-72
2023/11/03 15:13:54;;;;;;;;;;;;;;;;;;5062433;28;19970;-74
2023/11/03 15:16:22;;;;;;;;;;;;;;;;;;5078260;28;19916;-78
2023/11/03 15:18:47;;;;;;;;;;;;;;;;;;5058826;28;19977;-76
2023/11/03 15:21:13;;;;;;;;;;;;;;;;;;5062022;28;19974;-74
2023/11/03 15:23:39;;;;;;;;;;;;;;;;;;5061399;28;21995;-76
2023/11/03 15:26:05;;;;;;;;;;;;;;;;;;5077725;28;21581;-74
2023/11/03 15:28:30;;;;;;;;;;;;;;;;;;5060148;28;19912;-77
2023/11/03 15:30:56;;;;;;;;;;;;;;;;;;5063144;28;19922;-75
2023/11/03 15:33:21;;;;;;;;;;;;;;;;;;5076225;28;19912;-75
2023/11/03 15:35:52;;;;;;;;;;;;;;;;;;5040424;28;19997;-74
2023/11/03 15:38:18;;;;;;;;;;;;;;;;;;5076244;28;20366;-76
2023/11/03 15:40:46;;;;;;;;;;;;;;;;;;5059350;28;19924;-76
2023/11/03 15:43:17;;;;;;;;;;;;;;;;;;5059025;28;19931;-74
2023/11/03 15:45:46;;;;;;;;;;;;;;;;;;5059389;28;19926;-75
2023/11/03 15:48:11;;;;;;;;;;;;;;;;;;5076035;28;19932;-73
2023/11/03 15:50:39;;;;;;;;;;;;;;;;;;5055646;28;20004;-73
2023/11/03 15:53:05;;;;;;;;;;;;;;;;;;5071161;28;19916;-74
2023/11/03 15:55:30;;;;;;;;;;;;;;;;;;5077252;28;19920;-72
2023/11/03 15:57:55;;;;;;;;;;;;;;;;;;5092228;28;20643;-72
2023/11/03 16:00:24;;;;;;;;;;;;;;;;;;5092054;28;20401;-74
2023/11/03 16:02:49;;;;;;;;;;;;;;;;;;5074219;28;20077;-76
2023/11/03 16:05:15;;;;;;;;;;;;;;;;;;5076078;28;19920;-75
2023/11/03 16:07:46;;;;;;;;;;;;;;;;;;5064634;28;20332;-76
2023/11/03 16:10:15;;;;;;;;;;;;;;;;;;5077529;28;19972;-76
2023/11/03 16:12:45;;;;;;;;;;;;;;;;;;5082384;28;20161;-77
2023/11/03 16:15:15;;;;;;;;;;;;;;;;;;5094338;28;19920;-76
2023/11/03 16:17:40;;;;;;;;;;;;;;;;;;5063435;28;19915;-76
2023/11/03 16:20:06;;;;;;;;;;;;;;;;;;5058667;28;20378;-77
2023/11/03 16:22:32;;;;;;;;;;;;;;;;;;5059919;28;19927;-74
2023/11/03 16:24:57;;;;;;;;;;;;;;;;;;5079626;28;19955;-76
2023/11/03 16:27:22;;;;;;;;;;;;;;;;;;5076980;28;20007;-77
2023/11/03 16:29:54;;;;;;;;;;;;;;;;;;5077782;28;19970;-74
2023/11/03 16:32:22;;;;;;;;;;;;;;;;;;5095568;27;19926;-75
2023/11/03 16:34:47;;;;;;;;;;;;;;;;;;5075572;28;19927;-76
2023/11/03 16:37:12;;;;;;;;;;;;;;;;;;5061653;28;20294;-74
2023/11/03 16:39:38;;;;;;;;;;;;;;;;;;5059937;28;20573;-73
2023/11/03 16:42:06;;;;;;;;;;;;;;;;;;5078264;28;19927;-74